createdAt,value
2023-05-05T00:00:33.265Z,13.73
2023-05-05T00:05:49.809Z,13.02
2023-05-05T00:10:53.947Z,11.37
2023-05-05T00:15:56.802Z,10.46
2023-05-05T00:20:59.735Z,9.86
2023-05-05T00:26:02.602Z,9.45
2023-05-05T00:31:05.520Z,9.12
2023-05-05T00:36:09.410Z,8.81
2023-05-05T00:41:12.324Z,8.55
2023-05-05T00:46:26.546Z,9.99
2023-05-05T00:51:29.841Z,13.78
2023-05-05T00:56:33.259Z,14.03
2023-05-05T01:01:36.389Z,11.75
2023-05-05T01:07:01.121Z,10.34
2023-05-05T01:12:03.879Z,9.44
2023-05-05T01:17:36.506Z,10.41
2023-05-05T01:22:57.428Z,12.10
2023-05-05T01:28:31.523Z,10.37
2023-05-05T01:33:59.959Z,11.25
2023-05-05T01:39:04.675Z,12.36
2023-05-05T01:44:09.635Z,10.48
2023-05-05T01:49:13.606Z,9.59
2023-05-05T01:54:17.743Z,12.12
2023-05-05T01:59:21.847Z,12.04
2023-05-05T02:04:27.591Z,10.17
2023-05-05T02:09:31.640Z,10.91
2023-05-05T02:14:36.108Z,12.25
2023-05-05T02:19:43.120Z,10.42
2023-05-05T02:24:46.197Z,10.18
2023-05-05T02:29:52.942Z,12.38
2023-05-05T02:34:58.990Z,10.44
2023-05-05T02:40:05.536Z,10.90
2023-05-05T02:45:14.123Z,11.03
2023-05-05T02:50:17.203Z,9.67
2023-05-05T02:55:20.452Z,12.20
2023-05-05T03:00:28.260Z,11.74
2023-05-05T03:05:44.023Z,9.77
2023-05-05T03:11:08.124Z,11.59
2023-05-05T03:16:13.284Z,10.49
2023-05-05T03:21:16.600Z,9.58
2023-05-05T03:26:19.318Z,12.26
2023-05-05T03:31:22.224Z,11.10
2023-05-05T03:36:26.184Z,9.44
2023-05-05T03:41:30.829Z,8.67
2023-05-05T03:46:33.642Z,11.43
2023-05-05T03:51:37.008Z,12.87
2023-05-05T03:56:40.462Z,10.78
2023-05-05T04:01:45.165Z,9.35
2023-05-05T04:06:48.033Z,10.31
2023-05-05T04:11:51.275Z,12.04
2023-05-05T04:16:54.013Z,10.13
2023-05-05T04:21:56.797Z,9.34
2023-05-05T04:26:59.730Z,12.14
2023-05-05T04:32:02.605Z,11.70
2023-05-05T04:37:05.489Z,9.82
2023-05-05T04:42:09.100Z,10.84
2023-05-05T04:47:13.972Z,11.68
2023-05-05T04:52:17.452Z,9.91
2023-05-05T04:57:20.352Z,12.08
2023-05-05T05:02:23.297Z,11.85
2023-05-05T05:07:26.577Z,10.04
2023-05-05T05:12:29.349Z,11.05
2023-05-05T05:17:32.220Z,11.11
2023-05-05T05:22:38.323Z,10.13
2023-05-05T05:27:41.887Z,12.62
2023-05-05T05:32:45.034Z,11.69
2023-05-05T05:37:48.239Z,10.22
2023-05-05T05:42:51.054Z,9.94
2023-05-05T05:47:53.962Z,11.94
2023-05-05T05:52:56.922Z,10.87
2023-05-05T05:57:59.778Z,10.00
2023-05-05T06:03:04.892Z,9.49
2023-05-05T06:08:08.109Z,9.06
2023-05-05T06:13:11.839Z,8.72
2023-05-05T06:18:18.480Z,10.95
2023-05-05T06:23:22.256Z,10.50
2023-05-05T06:28:25.491Z,9.59
2023-05-05T06:33:28.760Z,9.24
2023-05-05T06:38:31.514Z,9.11
2023-05-05T06:43:34.930Z,9.08
2023-05-05T06:48:37.801Z,9.09
2023-05-05T06:53:40.674Z,9.12
2023-05-05T06:58:43.476Z,9.16
2023-05-05T07:03:46.428Z,9.23
2023-05-05T07:08:49.523Z,9.37
2023-05-05T07:13:53.312Z,9.45
2023-05-05T07:18:57.101Z,9.54
2023-05-05T07:24:02.245Z,9.69
2023-05-05T07:29:11.515Z,9.89
2023-05-05T07:34:17.582Z,10.08
2023-05-05T07:39:22.052Z,10.22
2023-05-05T07:44:25.112Z,10.41
2023-05-05T07:49:28.096Z,10.65
2023-05-05T07:54:31.504Z,10.82
2023-05-05T07:59:35.117Z,10.94
2023-05-05T08:04:40.291Z,11.02
2023-05-05T08:09:45.579Z,11.13
2023-05-05T08:14:48.284Z,11.23
2023-05-05T08:19:54.792Z,11.33
2023-05-05T08:24:57.573Z,11.40
2023-05-05T08:30:00.446Z,11.50
2023-05-05T08:35:03.615Z,11.71
2023-05-05T08:40:07.448Z,11.75
2023-05-05T08:45:13.513Z,11.77
2023-05-05T08:50:17.487Z,11.82
2023-05-05T08:55:20.243Z,11.95
2023-05-05T09:00:23.747Z,12.04
2023-05-05T09:05:27.406Z,12.16
2023-05-05T09:10:31.164Z,12.28
2023-05-05T09:15:34.138Z,12.40
2023-05-05T09:20:37.727Z,12.37
2023-05-05T09:25:43.946Z,12.35
2023-05-05T09:30:47.413Z,12.47
2023-05-05T09:35:50.309Z,12.68
2023-05-05T09:40:54.158Z,12.84
2023-05-05T09:46:15.196Z,12.99
2023-05-05T09:51:29.806Z,13.04
2023-05-05T09:56:40.448Z,13.07
2023-05-05T10:01:44.003Z,13.24
2023-05-05T10:06:49.956Z,13.34
2023-05-05T10:11:53.944Z,13.52
2023-05-05T10:17:00.977Z,13.83
2023-05-05T10:22:08.478Z,14.13
2023-05-05T10:27:20.034Z,14.18
2023-05-05T10:37:39.430Z,14.35
2023-05-05T10:42:42.275Z,14.41
2023-05-05T10:47:45.123Z,14.48
2023-05-05T10:52:58.890Z,14.58
2023-05-05T10:58:01.885Z,14.84
2023-05-05T11:03:20.700Z,15.11
2023-05-05T11:08:27.248Z,15.19
2023-05-05T11:13:30.629Z,15.26
2023-05-05T11:18:36.563Z,15.15
2023-05-05T11:23:39.418Z,15.13
2023-05-05T11:28:54.859Z,15.18
2023-05-05T11:34:28.930Z,15.26
2023-05-05T11:39:54.658Z,15.30
2023-05-05T11:44:57.905Z,14.95
2023-05-05T11:50:16.551Z,15.00
2023-05-05T11:55:22.116Z,15.21
2023-05-05T12:00:34.257Z,15.38
2023-05-05T12:05:37.218Z,15.22
2023-05-05T12:10:40.144Z,15.34
2023-05-05T12:15:42.942Z,15.41
2023-05-05T12:20:45.664Z,15.60
2023-05-05T12:25:49.803Z,15.80
2023-05-05T12:30:57.822Z,15.76
2023-05-05T12:36:01.073Z,15.60
2023-05-05T12:41:04.722Z,15.57
2023-05-05T12:46:14.398Z,15.72
2023-05-05T12:51:17.369Z,16.03
2023-05-05T12:56:49.432Z,16.10
2023-05-05T13:01:54.076Z,16.17
2023-05-05T13:07:15.238Z,16.06
2023-05-05T13:12:18.887Z,15.86
2023-05-05T13:17:21.758Z,15.89
2023-05-05T13:22:24.628Z,16.01
2023-05-05T13:27:27.659Z,16.06
2023-05-05T13:32:30.563Z,16.17
2023-05-05T13:37:33.398Z,16.34
2023-05-05T13:42:36.205Z,16.44
2023-05-05T13:47:39.113Z,16.55
2023-05-05T13:52:42.089Z,16.56
2023-05-05T13:57:44.919Z,16.82
2023-05-05T14:02:50.909Z,17.09
2023-05-05T14:07:54.368Z,17.47
2023-05-05T14:12:57.787Z,17.79
2023-05-05T14:18:03.520Z,18.26
2023-05-05T14:23:06.526Z,18.61
2023-05-05T14:28:09.396Z,18.66
2023-05-05T14:33:13.892Z,18.56
2023-05-05T14:38:16.773Z,17.81
2023-05-05T14:43:19.570Z,17.40
2023-05-05T14:48:22.750Z,17.50
2023-05-05T14:53:25.722Z,18.02
2023-05-05T14:58:28.551Z,18.78
2023-05-05T15:03:31.788Z,18.91
2023-05-05T15:08:35.136Z,18.76
2023-05-05T15:13:41.854Z,18.46
2023-05-05T15:18:44.676Z,18.79
2023-05-05T15:23:47.964Z,19.78
2023-05-05T15:28:52.700Z,19.79
2023-05-05T15:33:56.162Z,19.50
2023-05-05T15:38:59.211Z,19.73
2023-05-05T15:44:03.355Z,20.77
2023-05-05T15:49:06.179Z,21.85
2023-05-05T15:54:08.939Z,22.48
2023-05-05T15:59:11.745Z,22.75
2023-05-05T16:04:14.767Z,22.72
2023-05-05T16:09:17.891Z,22.28
2023-05-05T16:14:20.718Z,21.85
2023-05-05T16:19:26.648Z,21.54
2023-05-05T16:24:29.451Z,21.39
2023-05-05T16:29:32.290Z,21.32
2023-05-05T16:34:35.144Z,21.09
2023-05-05T16:39:40.374Z,20.52
2023-05-05T16:44:43.511Z,20.64
2023-05-05T16:49:46.613Z,20.80
2023-05-05T16:54:55.575Z,20.93
2023-05-05T16:59:58.621Z,20.85
2023-05-05T17:05:02.498Z,20.81
2023-05-05T17:10:06.452Z,20.60
2023-05-05T17:15:09.789Z,19.98
2023-05-05T17:20:13.178Z,18.63
2023-05-05T17:25:16.144Z,17.22
2023-05-05T17:30:19.310Z,15.95
2023-05-05T17:35:22.190Z,14.74
2023-05-05T17:40:25.088Z,13.79
2023-05-05T17:45:28.142Z,13.03
2023-05-05T17:50:31.007Z,12.44
2023-05-05T17:55:33.797Z,11.94
2023-05-05T18:00:36.610Z,11.50
2023-05-05T18:05:39.492Z,11.11
2023-05-05T18:10:42.305Z,10.76
2023-05-05T18:15:45.194Z,10.42
2023-05-05T18:20:48.407Z,10.12
2023-05-05T18:25:51.224Z,9.83
2023-05-05T18:30:54.180Z,9.57
2023-05-05T18:35:57.941Z,9.34
2023-05-05T18:41:00.791Z,9.12
2023-05-05T18:46:03.639Z,8.88
2023-05-05T18:51:07.537Z,8.70
2023-05-05T18:56:10.367Z,8.56
2023-05-05T19:01:13.276Z,8.43
2023-05-05T19:06:17.391Z,8.31
2023-05-05T19:11:20.674Z,8.18
2023-05-05T19:16:24.127Z,8.06
2023-05-05T19:21:27.818Z,7.93
2023-05-05T19:26:30.690Z,7.84
2023-05-05T19:31:33.626Z,7.71
2023-05-05T19:36:36.684Z,7.59
2023-05-05T19:41:39.583Z,7.46
2023-05-05T19:46:42.696Z,7.35
2023-05-05T19:51:47.708Z,7.25
2023-05-05T19:56:51.549Z,7.12
2023-05-05T20:01:54.443Z,6.99
2023-05-05T20:06:57.402Z,6.84
2023-05-05T20:12:00.336Z,6.73
2023-05-05T20:17:03.292Z,6.61
2023-05-05T20:22:06.240Z,6.50
2023-05-05T20:27:09.046Z,6.41
2023-05-05T20:32:11.848Z,6.33
2023-05-05T20:37:14.713Z,6.24
2023-05-05T20:42:17.555Z,6.12
2023-05-05T20:47:20.761Z,6.00
2023-05-05T20:52:23.595Z,5.87
2023-05-05T20:57:26.452Z,5.73
2023-05-05T21:02:29.403Z,5.60
2023-05-05T21:07:35.588Z,5.50
2023-05-05T21:12:40.321Z,5.43
2023-05-05T21:17:43.173Z,5.34
2023-05-05T21:22:46.087Z,5.25
2023-05-05T21:27:49.221Z,5.13
2023-05-05T21:32:52.180Z,5.01
2023-05-05T21:37:55.031Z,4.90
2023-05-05T21:42:57.831Z,4.80
2023-05-05T21:48:01.074Z,4.72
2023-05-05T21:53:03.876Z,4.63
2023-05-05T21:58:06.725Z,4.55
2023-05-05T22:03:09.967Z,4.48
2023-05-05T22:08:13.035Z,4.41
2023-05-05T22:13:16.008Z,4.35
2023-05-05T22:18:18.872Z,4.28
2023-05-05T22:23:21.709Z,4.20
2023-05-05T22:28:24.706Z,4.10
2023-05-05T22:33:28.563Z,4.02
2023-05-05T22:38:31.402Z,3.93
2023-05-05T22:43:34.199Z,3.83
2023-05-05T22:48:37.055Z,3.72
2023-05-05T22:53:39.899Z,3.61
2023-05-05T22:58:42.816Z,3.51
2023-05-05T23:03:45.632Z,3.40
2023-05-05T23:08:49.425Z,3.28
2023-05-05T23:13:52.305Z,3.17
2023-05-05T23:18:55.110Z,3.08
2023-05-05T23:23:57.966Z,3.01
2023-05-05T23:29:00.808Z,2.92
2023-05-05T23:34:03.651Z,2.84
2023-05-05T23:39:07.386Z,2.77
2023-05-05T23:44:10.240Z,2.71
2023-05-05T23:49:13.052Z,2.65
2023-05-05T23:54:15.939Z,2.60
2023-05-05T23:59:18.744Z,2.57
